Tiempo atmosférico en la estación meteorológica de Anaga, Santa Cruz de Tenerife (19 m.)



Fecha
DESCASC
Temp. máxima en grados centígrados (hora)
DESCASC
Temp. mínima en grados centígrados (hora)
DESCASC
Temp. media en grados centígrados
DESCASC
Racha de viento máxima en m/sg (hora)
DESCASC
Velocidad máxima media en intervalos de 10 minutos(hora)
DESCASC
Precipitaciones diarias en mm
DESCASC
Precipitaciones de 00:00 a 06:00 en mm
DESCASC
Precipitaciones de 06:00 a 12:00 en mm
DESCASC
Precipitaciones de 12:00 a 18:00 en mm
DESCASC
Precipitaciones de 18:00 a 24:00 en mm
DESCASC
17-08-2018 26.2 (14:40) 20.9 (01:20) 23.6 10.83 (17:30) 4.17 (18:50) 0.8 0.8 0 0 0
16-08-2018 26.3 (14:50) 21.4 (05:50) 23.8 12.22 (10:50) 6.11 (10:50) 0 0 0 0 0
15-08-2018 30.4 (14:10) 22.1 (23:59) 26.3 12.78 (16:50) 6.39 (17:20) 0 0 0 0 0
14-08-2018 31.6 (15:30) 22.3 (07:10) 26.9 7.5 (23:40) 3.33 (14:50) 0.2 0 0.2 0 0
13-08-2018 28.6 (12:00) 23.2 (05:00) 25.9 7.5 (13:40) 3.89 (14:40) 2.6 0 0 0 2.6
12-08-2018 28.3 (17:00) 22.2 (00:00) 25.3 10.56 (18:00) 5.28 (01:30) 0 0 0 0 0
11-08-2018 25.6 (14:00) 21.4 (00:00) 23.5 13.06 (18:10) 5.56 (15:50) 0 0 0 0 0
10-08-2018 26 (15:30) 21.9 (06:50) 23.9 10.83 (13:30) 3.89 (14:40) 0 0 0 0 0
09-08-2018 27.1 (14:30) 22.3 (00:00) 24.7 10 (14:50) 4.17 (14:40) 0 0 0 0 0
08-08-2018 26.8 (16:30) 22.3 (00:00) 24.5 12.78 (14:30) 6.11 (12:10) 0 0 0 0 0
07-08-2018 28.3 (03:20) 23.1 (00:00) 25.7 13.06 (17:20) 6.39 (15:50) 0 0 0 0 0
06-08-2018 33.8 (16:00) 24.1 (00:00) 28.9 10.28 (02:30) 5 (16:40) 0 0 0 0 0
05-08-2018 30.6 (15:30) 23 (00:00) 26.8 12.5 (19:10) 6.67 (19:30) 0 0 0 0 0
04-08-2018 27 (14:50) 21.1 (06:20) 24.1 12.78 (21:30) 5.83 (21:40) 0 0 0 0 0
03-08-2018 27.1 (15:50) 21 (00:00) 24.1 7.78 (21:40) 4.17 (16:50) 0 0 0 0 0
02-08-2018 27.2 (14:10) 22.2 (00:00) 24.7 11.11 (14:50) 4.72 (12:50) 0 0 0 0 0
01-08-2018 27.2 (14:00) 22.4 (02:40) 24.8 13.06 (18:50) 6.39 (18:50) 0 0 0 0 0
31-07-2018 26.5 (14:30) 22.1 (00:00) 24.3 12.5 (13:00) 6.94 (17:40) 0 0 0 0 0
30-07-2018 29.1 (16:00) 19.6 (00:00) 24.4 10 (23:30) 5 (19:20) 0 0 0 0 0
29-07-2018 27 (17:40) 20.3 (00:00) 23.6 8.06 (13:00) 4.17 (13:20) 0 0 0 0 0
28-07-2018 27.2 (15:30) 21.9 (00:00) 24.6 9.72 (12:40) 4.17 (15:10) 0 0 0 0 0
27-07-2018 26.2 (15:50) 21.4 (00:00) 23.8 10.83 (05:00) 5.28 (18:00) 0 0 0 0 0
26-07-2018 25.9 (13:00) 21.4 (00:00) 23.6 11.67 (15:40) 4.72 (14:30) 0 0 0 0 0
25-07-2018 26.1 (16:00) 21.1 (00:00) 23.6 10.56 (14:00) 5.28 (16:10) 0 0 0 0 0
24-07-2018 26.2 (16:40) 21.2 (00:00) 23.7 11.94 (00:20) 6.11 (15:20) 0 0 0 0 0
23-07-2018 26.3 (16:50) 21.1 (00:00) 23.7 11.67 (16:40) 5.83 (17:10) 0 0 0 0 0
22-07-2018 26 (15:30) 20.8 (00:00) 23.4 10.83 (12:40) 5 (18:00) 0 0 0 0 0
21-07-2018 25.6 (16:10) 21.4 (02:50) 23.5 12.78 (23:20) 5.56 (23:10) 0 0 0 0 0
20-07-2018 25.9 (15:40) 21.1 (00:00) 23.5 12.5 (21:50) 6.39 (21:40) 0 0 0 0 0

Gráficas

Temp. máximas Temp. mínimas Temp. medias Precipitaciones Rachas de viento máximas Velocidades máximas media en intervalos de 10 minutos

Datos horarios

Fecha y hora oficial Temperatura (ºC) Velocidad del viento (km/h) Dirección del viento Racha (km/h) Dirección de racha Precipitación (mm) Presión (hPa) Tendencia (hPa) Humedad (%)
2018-08-18 23:00:00 22.3 7 Norte 26 Norte 0 -- -- 73
2018-08-18 22:00:00 22.5 11 Norte 28 Norte 0 -- -- 71
2018-08-18 21:00:00 22.7 8 Norte 35 Norte 0 -- -- 72
2018-08-18 20:00:00 23.2 10 Norte 27 Nordeste 0 -- -- 69
2018-08-18 19:00:00 23.9 9 Norte 31 Norte 0 -- -- 66
2018-08-18 18:00:00 25.1 13 Norte 37 Noroeste 0 -- -- 64
2018-08-18 17:00:00 25.5 13 Norte 30 Nordeste 0 -- -- 62
2018-08-18 16:00:00 25.1 14 Norte 31 Nordeste 0 -- -- 63
2018-08-18 15:00:00 25.7 11 Norte 33 Noroeste 0 -- -- 59
2018-08-18 14:00:00 24.9 9 Norte 36 Noroeste 0 -- -- 65
2018-08-18 13:00:00 24.7 11 Norte 28 Nordeste 0 -- -- 66
2018-08-18 12:00:00 25.9 9 Norte 24 Norte 0 -- -- 57
2018-08-18 11:00:00 24.6 5 Norte 22 Norte 0 -- -- 57
2018-08-18 10:00:00 22.9 10 Norte 30 Nordeste 0 -- -- 67
2018-08-18 09:00:00 23 7 Norte 28 Norte 0 -- -- 66
2018-08-18 08:00:00 22.4 5 Norte 26 Noroeste 0 -- -- 66
2018-08-18 07:00:00 22.3 7 Norte 17 Norte 0 -- -- 70
2018-08-18 06:00:00 22.2 6 Norte 27 Norte 0 -- -- 67
2018-08-18 05:00:00 22.4 6 Norte 31 Noroeste 0 -- -- 73
2018-08-18 04:00:00 22.2 6 Norte 21 Norte 0 -- -- 74
2018-08-18 03:00:00 22.5 4 Norte 13 Nordeste 0 -- -- 69
2018-08-18 02:00:00 22.4 8 Norte 26 Norte 0 -- -- 72
2018-08-18 01:00:00 22.6 10 Norte 29 Nordeste 0 -- -- 74
2018-08-18 00:00:00 22.7 4 Norte 24 Noroeste 0 -- -- 73
2018-08-17 23:00:00 22.7 5 Este 23 Nordeste 0 -- -- 65
2018-08-17 22:00:00 22.8 6 Nordeste 24 Noroeste 0 -- -- 65
2018-08-17 21:00:00 22.8 7 Norte 28 Nordeste 0 -- -- 71
2018-08-17 20:00:00 23.5 7 Norte 32 Norte 0 -- -- 70
2018-08-17 19:00:00 24 10 Norte 32 Noroeste 0 -- -- 69
2018-08-17 18:00:00 24.6 11 Norte 39 Norte 0 -- -- 67
2018-08-17 17:00:00 25.4 10 Norte 30 Nordeste 0 -- -- 63
2018-08-17 16:00:00 25.5 11 Norte 30 Norte 0 -- -- 63
2018-08-17 15:00:00 25.8 12 Norte 32 Norte 0 -- -- 60
2018-08-17 14:00:00 25 12 Norte 27 Nordeste 0 -- -- 64
2018-08-17 13:00:00 24.5 8 Norte 25 Nordeste 0 -- -- 65
2018-08-17 12:00:00 24.3 11 Norte 30 Norte 0 -- -- 67
2018-08-17 11:00:00 23.4 9 Norte 23 Noroeste 0 -- -- 69
2018-08-17 10:00:00 23.3 9 Norte 23 Norte 0 -- -- 65
2018-08-17 09:00:00 22.7 10 Norte 24 Norte 0 -- -- 72
2018-08-17 08:00:00 22.2 7 Norte 27 Norte 0 -- -- 74
2018-08-17 07:00:00 21.8 5 Norte 22 Norte 0 -- -- 77
2018-08-17 06:00:00 22.3 7 Norte 22 Norte 0 -- -- 75
2018-08-17 05:00:00 22.3 5 Noroeste 31 Este 0 -- -- 73
2018-08-17 04:00:00 22.3 7 Norte 29 Noroeste 0 -- -- 72
2018-08-17 03:00:00 21.8 10 Norte 27 Nordeste 0.2 -- -- 76
2018-08-17 02:00:00 21.4 4 Noroeste 23 Norte 0.2 -- -- 79
2018-08-17 01:00:00 21.3 8 Norte 22 Norte 0.4 -- -- 84
2018-08-17 00:00:00 22.9 3 Noroeste 15 Nordeste 0 -- -- 68
2018-08-16 23:00:00 22.9 13 Norte 28 Noroeste 0 -- -- 67
2018-08-16 22:00:00 22.9 7 Norte 25 Noroeste 0 -- -- 67
2018-08-16 21:00:00 22.9 12 Norte 30 Nordeste 0 -- -- 67
2018-08-16 20:00:00 23.2 11 Norte 27 Norte 0 -- -- 68
2018-08-16 19:00:00 23.3 12 Norte 27 Nordeste 0 -- -- 69
2018-08-16 18:00:00 23.6 12 Norte 32 Norte 0 -- -- 73
2018-08-16 17:00:00 24 13 Norte 32 Norte 0 -- -- 70
2018-08-16 16:00:00 25.3 13 Norte 35 Norte 0 -- -- 65
2018-08-16 15:00:00 26.3 17 Norte 37 Norte 0 -- -- 60
2018-08-16 14:00:00 25.8 14 Norte 35 Norte 0 -- -- 63
2018-08-16 13:00:00 25.5 16 Norte 43 Norte 0 -- -- 62
2018-08-16 12:00:00 25.3 19 Norte 41 Norte 0 -- -- 61
2018-08-16 11:00:00 24.4 19 Norte 44 Norte 0 -- -- 64
2018-08-16 10:00:00 23.2 18 Norte 39 Norte 0 -- -- 70
2018-08-16 09:00:00 22.9 16 Norte 32 Noroeste 0 -- -- 70
2018-08-16 08:00:00 22 13 Norte 31 Norte 0 -- -- 73
2018-08-16 07:00:00 21.9 9 Norte 25 Norte 0 -- -- 73
2018-08-16 06:00:00 21.5 13 Norte 32 Noroeste 0 -- -- 78
2018-08-16 05:00:00 22 9 Norte 27 Noroeste 0 -- -- 77
2018-08-16 04:00:00 21.9 7 Norte 22 Norte 0 -- -- 79
2018-08-16 03:00:00 22 11 Norte 26 Norte 0 -- -- 77
2018-08-16 02:00:00 22 10 Norte 24 Noroeste 0 -- -- 76
2018-08-16 01:00:00 21.8 8 Norte 18 Norte 0 -- -- 84
2018-08-16 00:00:00 22.1 7 Norte 33 Norte 0 -- -- 80
2018-08-15 23:00:00 22.8 15 Norte 32 Norte 0 -- -- 73
2018-08-15 22:00:00 22.7 14 Norte 32 Noroeste 0 -- -- 74
2018-08-15 21:00:00 23 8 Norte 24 Nordeste 0 -- -- 73
2018-08-15 20:00:00 23.5 8 Norte 33 Noroeste 0 -- -- 70
2018-08-15 19:00:00 24.7 14 Norte 40 Norte 0 -- -- 67
2018-08-15 18:00:00 25.8 16 Norte 42 Norte 0 -- -- 64
2018-08-15 17:00:00 26.6 20 Norte 46 Norte 0 -- -- 61
2018-08-15 16:00:00 27.4 18 Norte 37 Norte 0 -- -- 57
2018-08-15 15:00:00 29.1 18 Norte 35 Norte 0 -- -- 48
2018-08-15 14:00:00 30.2 16 Norte 36 Noroeste 0 -- -- 41
2018-08-15 13:00:00 29.6 15 Nordeste 28 Nordeste 0 -- -- 46
2018-08-15 12:00:00 28 8 Sur 16 Sur 0 -- -- 53
2018-08-15 11:00:00 27.4 10 Sur 22 Sudeste 0 -- -- 56
2018-08-15 10:00:00 25.3 6 Sur 15 Sur 0 -- -- 64
2018-08-15 09:00:00 24 4 Sur 14 Sudoeste 0 -- -- 74
2018-08-15 08:00:00 22.8 2 Noroeste 7 Norte 0 -- -- 70
2018-08-15 07:00:00 22.5 2 Norte 8 Norte 0 -- -- 64
2018-08-15 06:00:00 23 3 Norte 10 Oeste 0 -- -- 64
2018-08-15 05:00:00 23.9 7 Sur 14 Sur 0 -- -- 67
2018-08-15 04:00:00 24.6 3 Sudoeste 18 Nordeste 0 -- -- 58
2018-08-15 03:00:00 24.2 5 Nordeste 15 Nordeste 0 -- -- 61
2018-08-15 02:00:00 24.8 4 Sudoeste 21 Norte 0 -- -- 62
2018-08-15 01:00:00 25.1 10 Nordeste 22 Norte 0 -- -- 58
2018-08-15 00:00:00 25.6 12 Nordeste 27 Norte 0 -- -- 57
2018-08-14 23:00:00 26.3 8 Norte 23 Norte 0 -- -- 48
2018-08-14 22:00:00 28.6 9 Norte 22 Nordeste 0 -- -- 34
2018-08-14 21:00:00 28.5 6 Nordeste 18 Norte 0 -- -- 32
2018-08-14 20:00:00 28.6 10 Nordeste 22 Nordeste 0 -- -- 43
2018-08-14 19:00:00 30.6 5 Sudeste 18 Nordeste 0 -- -- 41
2018-08-14 18:00:00 30.6 8 Sur 17 Sudeste 0 -- -- 42
2018-08-14 17:00:00 30.9 8 Sur 19 Sudeste 0 -- -- 43
2018-08-14 16:00:00 31.1 10 Sur 21 Sudeste 0 -- -- 45
2018-08-14 15:00:00 30.8 11 Sur 23 Sur 0 -- -- 47
2018-08-14 14:00:00 30.1 9 Sur 20 Sudeste 0 -- -- 50
2018-08-14 13:00:00 29 9 Sur 23 Sur 0 -- -- 55
2018-08-14 12:00:00 28.4 9 Sur 18 Sudeste 0 -- -- 60
2018-08-14 11:00:00 27.1 7 Sur 16 Sur 0 -- -- 65
2018-08-14 10:00:00 26.1 4 Sudeste 13 Sudoeste 0.2 -- -- 70
2018-08-14 09:00:00 23.6 3 Norte 9 Noroeste 0 -- -- 81
2018-08-14 08:00:00 22.3 4 Norte 8 Norte 0 -- -- 87
2018-08-14 07:00:00 22.4 5 Norte 8 Norte 0 -- -- 88
2018-08-14 06:00:00 22.4 3 Norte 8 Norte 0 -- -- 88
2018-08-14 05:00:00 22.5 4 Norte 8 Norte 0 -- -- 89
2018-08-14 04:00:00 22.7 4 Norte 5 Norte 0 -- -- 89
2018-08-14 03:00:00 22.9 2 Norte 6 Norte 0 -- -- 88
2018-08-14 02:00:00 23 3 Norte 5 Norte 0 -- -- 88
2018-08-14 01:00:00 23.3 0 Calma 9 Sudoeste 0 -- -- 86
2018-08-14 00:00:00 23.7 2 Norte 6 Sudoeste 0 -- -- 85
2018-08-13 23:00:00 24 3 Sudoeste 13 Sur 0 -- -- 81
2018-08-13 22:00:00 24.6 7 Sur 14 Sudoeste 0 -- -- 80
2018-08-13 21:00:00 24.6 8 Sudoeste 14 Sudoeste 0.4 -- -- 80
2018-08-13 20:00:00 24.3 3 Sur 12 Sudoeste 2.2 -- -- 82
2018-08-13 19:00:00 25.9 5 Oeste 16 Oeste 0 -- -- 73
2018-08-13 18:00:00 26.4 6 Sudoeste 16 Sudeste 0 -- -- 66
2018-08-13 17:00:00 26.6 7 Sur 13 Sudoeste 0 -- -- 63
2018-08-13 16:00:00 26.2 9 Sur 27 Sudeste 0 -- -- 66
2018-08-13 15:00:00 26.3 9 Sur 25 Sudeste 0 -- -- 65
2018-08-13 14:00:00 27.4 10 Sudeste 27 Sudeste 0 -- -- 57
2018-08-13 13:00:00 27.8 10 Sur 24 Sudeste 0 -- -- 55
2018-08-13 12:00:00 28.6 6 Sur 19 Sudeste 0 -- -- 51
2018-08-13 11:00:00 27.4 9 Sur 20 Sur 0 -- -- 54
2018-08-13 10:00:00 26.3 7 Sur 15 Sur 0 -- -- 59
2018-08-13 09:00:00 24.8 3 Sur 12 Sur 0 -- -- 67
2018-08-13 08:00:00 23.7 2 Sudeste 13 Sur 0 -- -- 73
2018-08-13 07:00:00 23.6 6 Sudoeste 19 Sudoeste 0 -- -- 75
2018-08-13 06:00:00 23.2 3 Norte 6 Norte 0 -- -- 77
2018-08-13 05:00:00 23.2 4 Sudoeste 12 Sudeste 0 -- -- 77
2018-08-13 04:00:00 23.6 5 Sur 21 Sur 0 -- -- 76
2018-08-13 03:00:00 23.7 5 Sudoeste 16 Sur 0 -- -- 76
2018-08-13 02:00:00 23.6 2 Norte 12 Sur 0 -- -- 76
2018-08-13 01:00:00 23.8 6 Sur 13 Sur 0 -- -- 75
2018-08-13 00:00:00 24.2 6 Sur 17 Sudeste 0 -- -- 73
2018-08-12 23:00:00 24.5 6 Sudoeste 13 Oeste 0 -- -- 72
2018-08-12 22:00:00 24.5 4 Sur 13 Sur 0 -- -- 71
2018-08-12 21:00:00 24.7 5 Sur 21 Sudeste 0 -- -- 71
2018-08-12 20:00:00 25.5 6 Sur 19 Sur 0 -- -- 67
2018-08-12 19:00:00 26 9 Sur 26 Sur 0 -- -- 67
2018-08-12 18:00:00 27.9 10 Norte 38 Este 0 -- -- 58
2018-08-12 17:00:00 28.3 6 Norte 26 Norte 0 -- -- 60
2018-08-12 16:00:00 27.9 9 Norte 26 Norte 0 -- -- 60
2018-08-12 15:00:00 27 15 Norte 28 Norte 0 -- -- 64
2018-08-12 14:00:00 27.4 8 Norte 26 Nordeste 0 -- -- 62
2018-08-12 13:00:00 26.6 13 Norte 32 Norte 0 -- -- 63
2018-08-12 12:00:00 25.8 12 Norte 31 Norte 0 -- -- 66
2018-08-12 11:00:00 24.7 14 Norte 32 Norte 0 -- -- 69
2018-08-12 10:00:00 23.9 14 Norte 32 Norte 0 -- -- 69
2018-08-12 09:00:00 22.9 15 Norte 32 Norte 0 -- -- 72
2018-08-12 08:00:00 22.5 13 Norte 29 Norte 0 -- -- 73
2018-08-12 07:00:00 22.4 16 Norte 32 Norte 0 -- -- 70
2018-08-12 06:00:00 22.2 13 Norte 36 Norte 0 -- -- 73
2018-08-12 05:00:00 22.2 14 Norte 31 Norte 0 -- -- 71
2018-08-12 04:00:00 22.3 13 Norte 31 Nordeste 0 -- -- 71
2018-08-12 03:00:00 22.4 14 Norte 31 Nordeste 0 -- -- 71
2018-08-12 02:00:00 22.3 15 Norte 37 Nordeste 0 -- -- 70
2018-08-12 01:00:00 22.2 15 Norte 33 Norte 0 -- -- 72
2018-08-12 00:00:00 22.3 13 Norte 36 Noroeste 0 -- -- 72
2018-08-11 23:00:00 22.3 9 Norte 28 Norte 0 -- -- 73
2018-08-11 22:00:00 22.3 5 Norte 26 Norte 0 -- -- 71
2018-08-11 21:00:00 22.5 10 Norte 31 Norte 0 -- -- 70
2018-08-11 20:00:00 22.7 11 Norte 38 Norte 0 -- -- 69
2018-08-11 19:00:00 24.1 13 Norte 47 Noroeste 0 -- -- 65
2018-08-11 18:00:00 24.6 13 Norte 40 Norte 0 -- -- 61
2018-08-11 17:00:00 25.3 10 Norte 42 Nordeste 0 -- -- 59
2018-08-11 16:00:00 25.2 17 Norte 38 Noroeste 0 -- -- 60
2018-08-11 15:00:00 25.2 17 Norte 36 Norte 0 -- -- 58
2018-08-11 14:00:00 25.6 13 Norte 34 Nordeste 0 -- -- 58
2018-08-11 13:00:00 25.2 11 Norte 35 Norte 0 -- -- 61
2018-08-11 12:00:00 24.9 15 Norte 33 Norte 0 -- -- 58
2018-08-11 11:00:00 24.3 14 Norte 43 Norte 0 -- -- 60
2018-08-11 10:00:00 23.2 16 Norte 40 Norte 0 -- -- 65
2018-08-11 09:00:00 22.3 11 Norte 35 Norte 0 -- -- 67
2018-08-11 08:00:00 21.5 13 Norte 32 Norte 0 -- -- 73
2018-08-11 07:00:00 21.4 10 Norte 29 Nordeste 0 -- -- 72
2018-08-11 06:00:00 21.5 12 Norte 33 Norte 0 -- -- 71
2018-08-11 05:00:00 21.5 13 Norte 33 Nordeste 0 -- -- 71
2018-08-11 04:00:00 21.5 11 Norte 34 Norte 0 -- -- 69
2018-08-11 03:00:00 21.6 10 Norte 30 Nordeste 0 -- -- 68
2018-08-11 02:00:00 21.6 10 Norte 28 Este 0 -- -- 67
2018-08-11 01:00:00 21.7 9 Norte 26 Norte 0 -- -- 67
2018-08-11 00:00:00 21.9 10 Norte 27 Norte 0 -- -- 65
2018-08-10 23:00:00 22.1 9 Norte 22 Norte 0 -- -- 68
2018-08-10 22:00:00 22.3 7 Norte 27 Noroeste 0 -- -- 69
2018-08-10 21:00:00 22.5 6 Norte 29 Norte 0 -- -- 67
2018-08-10 20:00:00 23 8 Norte 27 Norte 0 -- -- 65
2018-08-10 19:00:00 23.5 11 Norte 30 Norte 0 -- -- 64
2018-08-10 18:00:00 24.3 12 Norte 27 Norte 0 -- -- 62
2018-08-10 17:00:00 25.2 13 Norte 36 Nordeste 0 -- -- 57
2018-08-10 16:00:00 25.7 12 Norte 35 Norte 0 -- -- 53
2018-08-10 15:00:00 25.6 13 Norte 31 Norte 0 -- -- 56
2018-08-10 14:00:00 24.7 12 Norte 39 Norte 0 -- -- 58
2018-08-10 13:00:00 23.9 13 Norte 33 Nordeste 0 -- -- 62
2018-08-10 12:00:00 24.7 9 Norte 36 Nordeste 0 -- -- 58
2018-08-10 11:00:00 23.4 10 Norte 33 Nordeste 0 -- -- 60
2018-08-10 10:00:00 22.7 7 Norte 22 Norte 0 -- -- 68
2018-08-10 09:00:00 22.3 9 Norte 28 Norte 0 -- -- 69
2018-08-10 08:00:00 21.9 9 Nordeste 24 Norte 0 -- -- 70
2018-08-10 07:00:00 21.9 9 Norte 23 Nordeste 0 -- -- 73
2018-08-10 06:00:00 22 7 Norte 25 Norte 0 -- -- 68
2018-08-10 05:00:00 22.2 7 Nordeste 22 Norte 0 -- -- 71
2018-08-10 04:00:00 22.4 8 Norte 22 Norte 0 -- -- 71
2018-08-10 03:00:00 22.6 7 Norte 19 Oeste 0 -- -- 73
2018-08-10 02:00:00 22.7 11 Norte 25 Norte 0 -- -- 72
2018-08-10 01:00:00 23.2 6 Norte 26 Norte 0 -- -- 67
2018-08-10 00:00:00 23.4 8 Norte 21 Noroeste 0 -- -- 67
2018-08-09 23:00:00 23.1 6 Norte 21 Norte 0 -- -- 73
2018-08-09 22:00:00 23.4 6 Norte 24 Norte 0 -- -- 71
2018-08-09 21:00:00 23.6 8 Norte 26 Norte 0 -- -- 68
2018-08-09 20:00:00 24 11 Norte 29 Nordeste 0 -- -- 66
2018-08-09 19:00:00 24.6 10 Norte 26 Nordeste 0 -- -- 64
2018-08-09 18:00:00 25.6 12 Norte 33 Norte 0 -- -- 59
2018-08-09 17:00:00 26.6 10 Norte 31 Nordeste 0 -- -- 57
2018-08-09 16:00:00 26.3 10 Norte 28 Noroeste 0 -- -- 59
2018-08-09 15:00:00 26.7 13 Norte 36 Norte 0 -- -- 54
2018-08-09 14:00:00 26.5 12 Norte 34 Norte 0 -- -- 54
2018-08-09 13:00:00 25.6 9 Norte 29 Nordeste 0 -- -- 61
2018-08-09 12:00:00 24.7 8 Norte 23 Norte 0 -- -- 62
2018-08-09 11:00:00 24.1 12 Norte 25 Norte 0 -- -- 64
2018-08-09 10:00:00 23.5 9 Norte 25 Norte 0 -- -- 69
2018-08-09 09:00:00 22.9 8 Norte 20 Noroeste 0 -- -- 71
2018-08-09 08:00:00 22.3 7 Norte 21 Nordeste 0 -- -- 67
2018-08-09 07:00:00 22.3 5 Norte 19 Norte 0 -- -- 66
2018-08-09 06:00:00 22.4 6 Norte 20 Norte 0 -- -- 67
2018-08-09 05:00:00 22.4 6 Norte 21 Nordeste 0 -- -- 70
2018-08-09 04:00:00 22.4 6 Norte 21 Norte 0 -- -- 69
2018-08-09 03:00:00 22.3 8 Norte 23 Norte 0 -- -- 69
2018-08-09 02:00:00 22.5 8 Norte 26 Nordeste 0 -- -- 70
2018-08-09 01:00:00 22.5 9 Norte 30 Norte 0 -- -- 70
2018-08-09 00:00:00 22.6 11 Norte 29 Nordeste 0 -- -- 69
2018-08-08 23:00:00 22.8 13 Norte 36 Noroeste 0 -- -- 70
2018-08-08 22:00:00 23 9 Norte 29 Nordeste 0 -- -- 71
2018-08-08 21:00:00 23.3 10 Norte 41 Nordeste 0 -- -- 68
2018-08-08 20:00:00 23.8 14 Norte 33 Nordeste 0 -- -- 69
2018-08-08 19:00:00 25.3 12 Norte 30 Nordeste 0 -- -- 63
2018-08-08 18:00:00 26.1 13 Norte 32 Norte 0 -- -- 61
2018-08-08 17:00:00 26.3 15 Norte 39 Norte 0 -- -- 60
2018-08-08 16:00:00 26.7 16 Norte 38 Norte 0 -- -- 59
2018-08-08 15:00:00 26.6 17 Norte 46 Norte 0 -- -- 58
2018-08-08 14:00:00 26.5 20 Norte 42 Norte 0 -- -- 57
2018-08-08 13:00:00 26.2 17 Norte 39 Norte 0 -- -- 59
2018-08-08 12:00:00 26.1 17 Norte 42 Norte 0 -- -- 60
2018-08-08 11:00:00 25.1 17 Norte 40 Norte 0 -- -- 64
2018-08-08 10:00:00 24.2 17 Norte 41 Norte 0 -- -- 67
2018-08-08 09:00:00 23.1 18 Norte 41 Norte 0 -- -- 69
2018-08-08 08:00:00 22.5 14 Norte 39 Norte 0 -- -- 74
2018-08-08 07:00:00 22.4 12 Norte 36 Norte 0 -- -- 74
2018-08-08 06:00:00 22.3 15 Norte 44 Norte 0 -- -- 75
2018-08-08 05:00:00 22.3 15 Norte 41 Norte 0 -- -- 74
2018-08-08 04:00:00 22.4 19 Norte 40 Norte 0 -- -- 73
2018-08-08 03:00:00 22.5 14 Norte 35 Norte 0 -- -- 72
2018-08-08 02:00:00 22.7 15 Norte 40 Norte 0 -- -- 73
2018-08-08 01:00:00 22.8 14 Norte 40 Norte 0 -- -- 72
2018-08-08 00:00:00 23.1 18 Norte 45 Norte 0 -- -- 70
2018-08-07 23:00:00 23.4 17 Norte 37 Norte 0 -- -- 67
2018-08-07 22:00:00 23.4 21 Norte 46 Norte 0 -- -- 68
2018-08-07 21:00:00 23.4 20 Norte 41 Nordeste 0 -- -- 70
2018-08-07 20:00:00 23.8 21 Norte 44 Norte 0 -- -- 70
2018-08-07 19:00:00 24.8 18 Norte 42 Nordeste 0 -- -- 69
2018-08-07 18:00:00 26.1 21 Norte 47 Norte 0 -- -- 64
2018-08-07 17:00:00 26.7 19 Norte 42 Norte 0 -- -- 63
2018-08-07 16:00:00 27.4 21 Norte 39 Norte 0 -- -- 59
2018-08-07 15:00:00 28.1 20 Norte 35 Norte 0 -- -- 56
2018-08-07 14:00:00 27.8 19 Norte 36 Norte 0 -- -- 57
2018-08-07 13:00:00 28 15 Norte 35 Noroeste 0 -- -- 55
2018-08-07 12:00:00 28.2 15 Norte 33 Norte 0 -- -- 55
2018-08-07 11:00:00 26.3 15 Norte 34 Norte 0 -- -- 63
2018-08-07 10:00:00 26.3 14 Norte 41 Norte 0 -- -- 59
2018-08-07 09:00:00 25.7 15 Nordeste 38 Nordeste 0 -- -- 59
2018-08-07 08:00:00 25.5 15 Nordeste 35 Nordeste 0 -- -- 59
2018-08-07 07:00:00 25.6 13 Nordeste 33 Nordeste 0 -- -- 57
2018-08-07 06:00:00 26.6 9 Norte 27 Nordeste 0 -- -- 51
2018-08-07 05:00:00 26.6 13 Norte 30 Norte 0 -- -- 50
2018-08-07 04:00:00 27.7 9 Norte 22 Norte 0 -- -- 42
2018-08-07 03:00:00 28.2 7 Norte 26 Norte 0 -- -- 37
2018-08-07 02:00:00 26.7 12 Norte 28 Nordeste 0 -- -- 49
2018-08-07 01:00:00 25.3 14 Nordeste 32 Norte 0 -- -- 59
2018-08-07 00:00:00 25.2 14 Norte 35 Nordeste 0 -- -- 61
2018-08-06 23:00:00 25.2 10 Norte 33 Norte 0 -- -- 63
2018-08-06 22:00:00 25.4 14 Norte 35 Norte 0 -- -- 61
2018-08-06 21:00:00 25.7 15 Norte 31 Nordeste 0 -- -- 64
2018-08-06 20:00:00 27.5 13 Nordeste 33 Norte 0 -- -- 56
2018-08-06 19:00:00 29.5 14 Nordeste 30 Nordeste 0 -- -- 47
2018-08-06 18:00:00 31.3 16 Nordeste 35 Norte 0 -- -- 45
2018-08-06 17:00:00 32.4 15 Nordeste 35 Nordeste 0 -- -- 40
2018-08-06 16:00:00 33.8 12 Nordeste 32 Norte 0 -- -- 35
2018-08-06 15:00:00 32.3 9 Sur 23 Este 0 -- -- 44
2018-08-06 14:00:00 30.7 8 Sudeste 20 Nordeste 0 -- -- 52
2018-08-06 13:00:00 29.9 8 Sudeste 23 Sudeste 0 -- -- 56
2018-08-06 12:00:00 27.8 7 Sudeste 31 Sur 0 -- -- 65
2018-08-06 11:00:00 27.4 11 Sur 27 Sudeste 0 -- -- 64
2018-08-06 10:00:00 27 8 Sudeste 28 Nordeste 0 -- -- 70
2018-08-06 09:00:00 26 9 Nordeste 24 Nordeste 0 -- -- 63
2018-08-06 08:00:00 26 7 Sudeste 21 Nordeste 0 -- -- 71
2018-08-06 07:00:00 26 5 Norte 32 Nordeste 0 -- -- 58
2018-08-06 06:00:00 25.8 12 Nordeste 28 Nordeste 0 -- -- 60
2018-08-06 05:00:00 25.6 10 Norte 32 Nordeste 0 -- -- 59
2018-08-06 04:00:00 25.5 15 Nordeste 32 Nordeste 0 -- -- 61
2018-08-06 03:00:00 24.6 17 Nordeste 37 Nordeste 0 -- -- 66
2018-08-06 02:00:00 24.3 17 Nordeste 35 Nordeste 0 -- -- 69
2018-08-06 01:00:00 24.4 16 Nordeste 34 Nordeste 0 -- -- 68
2018-08-06 00:00:00 24.1 15 Norte 30 Nordeste 0 -- -- 70
2018-08-05 23:00:00 24.4 10 Norte 36 Nordeste 0 -- -- 69
2018-08-05 22:00:00 24.2 17 Norte 37 Norte 0 -- -- 72
2018-08-05 21:00:00 24.4 16 Norte 36 Nordeste 0 -- -- 71
2018-08-05 20:00:00 25.1 23 Norte 45 Norte 0 -- -- 68
2018-08-05 19:00:00 26.1 24 Norte 44 Nordeste 0 -- -- 64
2018-08-05 18:00:00 26.7 22 Norte 42 Nordeste 0 -- -- 62
2018-08-05 17:00:00 27.4 24 Norte 41 Nordeste 0 -- -- 60
2018-08-05 16:00:00 28.6 20 Norte 36 Nordeste 0 -- -- 58
2018-08-05 15:00:00 29.6 14 Nordeste 37 Nordeste 0 -- -- 52
2018-08-05 14:00:00 27.8 21 Norte 35 Nordeste 0 -- -- 60
2018-08-05 13:00:00 27.4 17 Nordeste 32 Nordeste 0 -- -- 61
2018-08-05 12:00:00 27.5 12 Nordeste 28 Nordeste 0 -- -- 60
2018-08-05 11:00:00 25.7 13 Norte 34 Norte 0 -- -- 66
2018-08-05 10:00:00 24.6 14 Norte 34 Norte 0 -- -- 69
2018-08-05 09:00:00 23.9 11 Norte 26 Norte 0 -- -- 72
2018-08-05 08:00:00 23.5 8 Norte 24 Nordeste 0 -- -- 71
2018-08-05 07:00:00 23.3 9 Norte 26 Norte 0 -- -- 72
2018-08-05 06:00:00 23.2 13 Norte 32 Norte 0 -- -- 75
2018-08-05 05:00:00 23.3 10 Norte 24 Nordeste 0 -- -- 74
2018-08-05 04:00:00 23.5 13 Norte 27 Nordeste 0 -- -- 71
2018-08-05 03:00:00 23.6 11 Norte 35 Nordeste 0 -- -- 70
2018-08-05 02:00:00 23.7 13 Norte 34 Nordeste 0 -- -- 71
2018-08-05 01:00:00 23.6 13 Norte 32 Nordeste 0 -- -- 71
2018-08-05 00:00:00 23.8 13 Norte 36 Norte 0 -- -- 69
2018-08-04 23:00:00 23.7 15 Norte 36 Norte 0 -- -- 71
2018-08-04 22:00:00 23.7 17 Norte 46 Nordeste 0 -- -- 70
2018-08-04 21:00:00 23.9 15 Norte 40 Nordeste 0 -- -- 68
2018-08-04 20:00:00 24.1 19 Norte 39 Norte 0 -- -- 67
2018-08-04 19:00:00 24.5 14 Norte 42 Nordeste 0 -- -- 66
2018-08-04 18:00:00 25.7 15 Norte 36 Norte 0 -- -- 61
2018-08-04 17:00:00 26.1 17 Norte 35 Norte 0 -- -- 61
2018-08-04 16:00:00 26.6 15 Norte 33 Norte 0 -- -- 60
2018-08-04 15:00:00 27 15 Norte 33 Nordeste 0 -- -- 58
2018-08-04 14:00:00 26.9 10 Norte 28 Nordeste 0 -- -- 58
2018-08-04 13:00:00 25.4 15 Sur 31 Sur 0 -- -- 64
2018-08-04 12:00:00 26 11 Norte 27 Norte 0 -- -- 58
2018-08-04 11:00:00 25.1 11 Norte 25 Nordeste 0 -- -- 60
2018-08-04 10:00:00 24.2 5 Nordeste 15 Norte 0 -- -- 62
2018-08-04 09:00:00 22.6 0 Calma 10 Noroeste 0 -- -- 66
2018-08-04 08:00:00 21.7 4 Norte 21 Nordeste 0 -- -- 69
2018-08-04 07:00:00 21.2 3 Noroeste 10 Este 0 -- -- 70
2018-08-04 06:00:00 21.4 0 Calma 10 Noroeste 0 -- -- 69
2018-08-04 05:00:00 21.8 3 Noroeste 23 Nordeste 0 -- -- 66
2018-08-04 04:00:00 22 4 Noroeste 22 Norte 0 -- -- 66
2018-08-04 03:00:00 22.1 12 Norte 23 Norte 0 -- -- 66
2018-08-04 02:00:00 22.3 7 Norte 24 Norte 0 -- -- 66
2018-08-04 01:00:00 22.4 11 Norte 28 Norte 0 -- -- 65
2018-08-04 00:00:00 22.7 15 Norte 28 Norte 0 -- -- 64
2018-08-03 23:00:00 22.8 15 Norte 26 Norte 0 -- -- 65
2018-08-03 22:00:00 23 13 Norte 28 Norte 0 -- -- 65
2018-08-03 21:00:00 23.4 12 Norte 27 Norte 0 -- -- 64
2018-08-03 20:00:00 24.1 12 Norte 25 Norte 0 -- -- 62
2018-08-03 19:00:00 25.3 11 Norte 26 Noroeste 0 -- -- 60
2018-08-03 18:00:00 26.3 9 Sur 18 Sur 0 -- -- 59
2018-08-03 17:00:00 26.4 10 Sur 24 Sur 0 -- -- 59
2018-08-03 16:00:00 26.8 8 Sur 23 Sudeste 0 -- -- 56
2018-08-03 15:00:00 26.4 9 Sur 23 Sur 0 -- -- 58
2018-08-03 14:00:00 26.2 12 Sur 24 Sudeste 0 -- -- 58
2018-08-03 13:00:00 25.6 8 Sur 21 Oeste 0 -- -- 61
2018-08-03 12:00:00 26 7 Norte 28 Norte 0 -- -- 58
2018-08-03 11:00:00 26.3 6 Noroeste 19 Norte 0 -- -- 57
2018-08-03 10:00:00 25.2 6 Norte 15 Norte 0 -- -- 59
2018-08-03 09:00:00 23.3 3 Noroeste 11 Norte 0 -- -- 64
2018-08-03 08:00:00 22.9 4 Norte 10 Noroeste 0 -- -- 66
2018-08-03 07:00:00 22.5 0 Calma 5 Noroeste 0 -- -- 67
2018-08-03 06:00:00 22.5 3 Sur 9 Noroeste 0 -- -- 68
2018-08-03 05:00:00 21.7 2 Noroeste 6 Oeste 0 -- -- 67
2018-08-03 04:00:00 21.3 2 Norte 6 Norte 0 -- -- 69
2018-08-03 03:00:00 21.3 0 Calma 4 Norte 0 -- -- 69
2018-08-03 02:00:00 21.9 0 Calma 5 Oeste 0 -- -- 66
2018-08-03 01:00:00 22.7 2 Noroeste 20 Norte 0 -- -- 65
2018-08-03 00:00:00 23 5 Norte 19 Norte 0 -- -- 65
2018-08-02 23:00:00 23.1 6 Norte 17 Nordeste 0 -- -- 65
2018-08-02 22:00:00 23.2 7 Norte 18 Nordeste 0 -- -- 65
2018-08-02 21:00:00 23.6 6 Norte 20 Nordeste 0 -- -- 64
2018-08-02 20:00:00 24.3 9 Norte 27 Norte 0 -- -- 60
2018-08-02 19:00:00 26 11 Norte 33 Nordeste 0 -- -- 54
2018-08-02 18:00:00 26.4 12 Norte 31 Norte 0 -- -- 55
2018-08-02 17:00:00 26.6 16 Norte 33 Norte 0 -- -- 56
2018-08-02 16:00:00 26.8 14 Norte 36 Norte 0 -- -- 54
2018-08-02 15:00:00 26.8 15 Norte 40 Norte 0 -- -- 53
2018-08-02 14:00:00 26.9 12 Norte 39 Norte 0 -- -- 52
2018-08-02 13:00:00 25.7 14 Norte 38 Norte 0 -- -- 59
2018-08-02 12:00:00 25.3 13 Norte 36 Noroeste 0 -- -- 61
2018-08-02 11:00:00 25.6 11 Norte 35 Norte 0 -- -- 55
2018-08-02 10:00:00 24.4 13 Norte 30 Norte 0 -- -- 62
2018-08-02 09:00:00 23.2 6 Norte 24 Nordeste 0 -- -- 64
2018-08-02 08:00:00 22.2 5 Norte 26 Norte 0 -- -- 71
2018-08-02 07:00:00 22.3 5 Norte 24 Noroeste 0 -- -- 69
2018-08-02 06:00:00 22.4 8 Norte 29 Norte 0 -- -- 71
2018-08-02 05:00:00 22.6 9 Norte 24 Norte 0 -- -- 64
2018-08-02 04:00:00 22.2 8 Norte 24 Nordeste 0 -- -- 68
2018-08-02 03:00:00 22.5 8 Norte 32 Norte 0 -- -- 68
2018-08-02 02:00:00 22.4 12 Norte 32 Noroeste 0 -- -- 72
2018-08-02 01:00:00 22.6 8 Norte 23 Noroeste 0 -- -- 73
2018-08-02 00:00:00 23 8 Norte 24 Nordeste 0 -- -- 69
2018-08-01 23:00:00 23.2 8 Nordeste 36 Norte 0 -- -- 70
2018-08-01 22:00:00 23.4 9 Norte 22 Norte 0 -- -- 71
2018-08-01 21:00:00 23.5 7 Noroeste 28 Norte 0 -- -- 68
2018-08-01 20:00:00 24.1 6 Sur 47 Norte 0 -- -- 66
2018-08-01 19:00:00 25.1 23 Norte 47 Nordeste 0 -- -- 63
2018-08-01 18:00:00 26.4 13 Nordeste 35 Norte 0 -- -- 59
2018-08-01 17:00:00 26.7 11 Norte 45 Norte 0 -- -- 55
2018-08-01 16:00:00 27.1 9 Norte 31 Norte 0 -- -- 56
2018-08-01 15:00:00 26.9 14 Norte 33 Norte 0 -- -- 57
2018-08-01 14:00:00 27.2 12 Norte 27 Norte 0 -- -- 53
2018-08-01 13:00:00 26.6 9 Norte 27 Noroeste 0 -- -- 54
2018-08-01 12:00:00 26 8 Norte 29 Norte 0 -- -- 57
2018-08-01 11:00:00 25.3 11 Nordeste 34 Norte 0 -- -- 58
2018-08-01 10:00:00 24.7 10 Norte 24 Norte 0 -- -- 59
2018-08-01 09:00:00 23.4 10 Norte 27 Norte 0 -- -- 64
2018-08-01 08:00:00 22.5 10 Norte 29 Norte 0 -- -- 72
2018-08-01 07:00:00 22.4 5 Norte 30 Noroeste 0 -- -- 70
2018-08-01 06:00:00 22.6 8 Norte 26 Este 0 -- -- 71
2018-08-01 05:00:00 22.5 8 Norte 32 Norte 0 -- -- 72
2018-08-01 04:00:00 22.5 6 Norte 25 Nordeste 0 -- -- 72
2018-08-01 03:00:00 22.4 5 Norte 23 Norte 0 -- -- 72
2018-08-01 02:00:00 22.5 8 Norte 37 Noroeste 0 -- -- 72
2018-08-01 01:00:00 22.6 8 Norte 30 Norte 0 -- -- 72
2018-08-01 00:00:00 22.6 15 Norte 32 Norte 0 -- -- 71
2018-07-31 23:00:00 22.6 14 Norte 30 Norte 0 -- -- 67
2018-07-31 22:00:00 22.7 14 Norte 33 Norte 0 -- -- 69
2018-07-31 21:00:00 22.8 15 Norte 41 Norte 0 -- -- 66
2018-07-31 20:00:00 23.2 21 Norte 42 Norte 0 -- -- 69
2018-07-31 19:00:00 23.8 20 Norte 44 Norte 0 -- -- 63
2018-07-31 18:00:00 25 21 Norte 45 Norte 0 -- -- 60
2018-07-31 17:00:00 26 15 Norte 41 Nordeste 0 -- -- 59
2018-07-31 16:00:00 25.6 20 Norte 39 Nordeste 0 -- -- 60
2018-07-31 15:00:00 25.7 19 Norte 44 Nordeste 0 -- -- 61
2018-07-31 14:00:00 26 17 Norte 40 Norte 0 -- -- 57
2018-07-31 13:00:00 25.6 18 Norte 45 Norte 0 -- -- 59
2018-07-31 12:00:00 25.2 18 Norte 42 Noroeste 0 -- -- 59
2018-07-31 11:00:00 24.4 17 Norte 36 Norte 0 -- -- 64
2018-07-31 10:00:00 23.4 15 Norte 43 Norte 0 -- -- 67
2018-07-31 09:00:00 22.6 15 Norte 37 Norte 0 -- -- 71
2018-07-31 08:00:00 22.3 16 Norte 35 Noroeste 0 -- -- 71
2018-07-31 07:00:00 22.3 17 Norte 44 Nordeste 0 -- -- 71
2018-07-31 06:00:00 22.2 17 Norte 35 Nordeste 0 -- -- 73
2018-07-31 05:00:00 22.2 20 Norte 39 Norte 0 -- -- 74
2018-07-31 04:00:00 22.2 14 Norte 31 Norte 0 -- -- 72
2018-07-31 03:00:00 22.5 11 Norte 39 Norte 0 -- -- 71
2018-07-31 02:00:00 22.8 11 Norte 30 Nordeste 0 -- -- 69
2018-07-31 01:00:00 22.7 10 Norte 32 Norte 0 -- -- 69
2018-07-31 00:00:00 22.7 7 Norte 36 Nordeste 0 -- -- 70
2018-07-30 23:00:00 22.8 15 Norte 28 Norte 0 -- -- 71
2018-07-30 22:00:00 22.9 10 Norte 31 Noroeste 0 -- -- 72
2018-07-30 21:00:00 23 13 Norte 31 Norte 0 -- -- 70
2018-07-30 20:00:00 23.7 13 Norte 32 Norte 0 -- -- 67
2018-07-30 19:00:00 25.5 13 Norte 32 Nordeste 0 -- -- 61
2018-07-30 18:00:00 26.8 13 Norte 33 Sudeste 0 -- -- 56
2018-07-30 17:00:00 27 13 Sudeste 30 Sudeste 0 -- -- 59
2018-07-30 16:00:00 29.1 7 Norte 26 Nordeste 0 -- -- 46
2018-07-30 15:00:00 25.8 13 Sudeste 29 Sudeste 0 -- -- 62
2018-07-30 14:00:00 25.6 11 Sudeste 30 Sudeste 0 -- -- 64
2018-07-30 13:00:00 25.4 12 Sudeste 27 Sudeste 0 -- -- 64
2018-07-30 12:00:00 25.1 13 Sudeste 30 Sudeste 0 -- -- 64
2018-07-30 11:00:00 24.7 7 Sudeste 15 Sudeste 0 -- -- 65
2018-07-30 10:00:00 23.8 7 Sur 13 Sur 0 -- -- 69
2018-07-30 09:00:00 21.6 3 Norte 7 Noroeste 0 -- -- 74
2018-07-30 08:00:00 19.9 4 Norte 10 Noroeste 0 -- -- 78
2018-07-30 07:00:00 20.3 0 Calma 12 Norte 0 -- -- 78
2018-07-30 06:00:00 20.9 4 Noroeste 15 Noroeste 0 -- -- 81
2018-07-30 05:00:00 19.9 4 Norte 8 Norte 0 -- -- 79
2018-07-30 04:00:00 20.4 3 Norte 8 Norte 0 -- -- 77
2018-07-30 03:00:00 20.5 3 Norte 6 Norte 0 -- -- 75
2018-07-30 02:00:00 21.4 0 Calma 10 Sudeste 0 -- -- 73
2018-07-30 01:00:00 22.4 3 Sudoeste 11 Sur 0 -- -- 72
2018-07-30 00:00:00 22.6 4 Sudoeste 18 Nordeste 0 -- -- 67
2018-07-29 23:00:00 22.5 8 Nordeste 17 Norte 0 -- -- 70
2018-07-29 22:00:00 22.6 7 Norte 15 Nordeste 0 -- -- 73
2018-07-29 21:00:00 23.4 7 Norte 23 Norte 0 -- -- 69
2018-07-29 20:00:00 24.6 9 Nordeste 19 Nordeste 0 -- -- 66
2018-07-29 19:00:00 26.2 7 Nordeste 17 Norte 0 -- -- 59
2018-07-29 18:00:00 26.4 11 Sur 22 Sudeste 0 -- -- 60
2018-07-29 17:00:00 26.5 11 Sur 25 Sudeste 0 -- -- 61
2018-07-29 16:00:00 25.9 10 Sudeste 24 Sudeste 0 -- -- 63
2018-07-29 15:00:00 24.9 12 Sudeste 27 Sudeste 0 -- -- 67
2018-07-29 14:00:00 24.5 11 Sudeste 28 Sudeste 0 -- -- 67
2018-07-29 13:00:00 24 15 Sudeste 29 Sudeste 0 -- -- 70
2018-07-29 12:00:00 24.2 8 Sudeste 22 Este 0 -- -- 69
2018-07-29 11:00:00 23.6 8 Sudeste 21 Sur 0 -- -- 70
2018-07-29 10:00:00 23.6 6 Sur 12 Sur 0 -- -- 70
2018-07-29 09:00:00 21.7 2 Norte 6 Norte 0 -- -- 72
2018-07-29 08:00:00 20.3 5 Norte 8 Norte 0 -- -- 75
2018-07-29 07:00:00 21.4 2 Norte 10 Norte 0 -- -- 72
2018-07-29 06:00:00 21.6 4 Nordeste 13 Nordeste 0 -- -- 72
2018-07-29 05:00:00 21.7 5 Norte 15 Norte 0 -- -- 72
2018-07-29 04:00:00 21.8 0 Calma 14 Norte 0 -- -- 72
2018-07-29 03:00:00 22 5 Norte 14 Nordeste 0 -- -- 72
2018-07-29 02:00:00 22.1 5 Norte 15 Norte 0 -- -- 72
2018-07-29 01:00:00 22.3 7 Norte 27 Nordeste 0 -- -- 73
2018-07-29 00:00:00 22.5 4 Nordeste 20 Norte 0 -- -- 69
2018-07-28 23:00:00 22.7 7 Norte 20 Nordeste 0 -- -- 69
2018-07-28 22:00:00 22.9 7 Norte 25 Norte 0 -- -- 70
2018-07-28 21:00:00 23.2 11 Norte 23 Norte 0 -- -- 69
2018-07-28 20:00:00 24.1 7 Norte 19 Norte 0 -- -- 64
2018-07-28 19:00:00 25.1 10 Norte 25 Norte 0 -- -- 60
2018-07-28 18:00:00 26.5 11 Norte 27 Norte 0 -- -- 56
2018-07-28 17:00:00 26.6 12 Norte 28 Nordeste 0 -- -- 56
2018-07-28 16:00:00 26.9 13 Norte 30 Norte 0 -- -- 52
2018-07-28 15:00:00 26.7 14 Norte 28 Norte 0 -- -- 54
2018-07-28 14:00:00 26.7 11 Norte 26 Nordeste 0 -- -- 55
2018-07-28 13:00:00 25.5 14 Norte 35 Norte 0 -- -- 58
2018-07-28 12:00:00 24.8 12 Norte 27 Norte 0 -- -- 62
2018-07-28 11:00:00 23.8 11 Norte 27 Norte 0 -- -- 66
2018-07-28 10:00:00 22.8 13 Norte 26 Norte 0 -- -- 69
2018-07-28 09:00:00 22.3 10 Norte 22 Norte 0 -- -- 70
2018-07-28 08:00:00 22.1 6 Norte 24 Nordeste 0 -- -- 72
2018-07-28 07:00:00 21.9 9 Norte 23 Norte 0 -- -- 73
2018-07-28 06:00:00 21.9 9 Norte 25 Nordeste 0 -- -- 74
2018-07-28 05:00:00 22 10 Norte 26 Norte 0 -- -- 75
2018-07-28 04:00:00 22.2 10 Norte 23 Norte 0 -- -- 75
2018-07-28 03:00:00 22.2 11 Norte 24 Norte 0 -- -- 74
2018-07-28 02:00:00 22.2 10 Norte 26 Noroeste 0 -- -- 74
2018-07-28 01:00:00 22.3 9 Norte 32 Norte 0 -- -- 72
2018-07-28 00:00:00 22.5 9 Norte 34 Norte 0 -- -- 69
2018-07-27 23:00:00 22.7 12 Norte 29 Noroeste 0 -- -- 69
2018-07-27 22:00:00 22.5 9 Norte 28 Norte 0 -- -- 70
2018-07-27 21:00:00 22.7 7 Norte 27 Norte 0 -- -- 68
2018-07-27 20:00:00 23.2 8 Norte 37 Nordeste 0 -- -- 66
2018-07-27 19:00:00 24.9 12 Nordeste 30 Norte 0 -- -- 61
2018-07-27 18:00:00 25.3 19 Nordeste 37 Norte 0 -- -- 59
2018-07-27 17:00:00 25.8 12 Norte 29 Norte 0 -- -- 57
2018-07-27 16:00:00 25.8 13 Norte 28 Norte 0 -- -- 59
2018-07-27 15:00:00 25.8 12 Norte 35 Nordeste 0 -- -- 55
2018-07-27 14:00:00 24.9 11 Norte 32 Nordeste 0 -- -- 60
2018-07-27 13:00:00 24.8 11 Norte 33 Norte 0 -- -- 59
2018-07-27 12:00:00 24.2 9 Norte 35 Nordeste 0 -- -- 62
2018-07-27 11:00:00 22.9 12 Norte 33 Nordeste 0 -- -- 69
2018-07-27 10:00:00 23.8 9 Norte 29 Nordeste 0 -- -- 62
2018-07-27 09:00:00 22.1 9 Norte 24 Norte 0 -- -- 70
2018-07-27 08:00:00 21.5 7 Norte 24 Norte 0 -- -- 69
2018-07-27 07:00:00 21.6 8 Norte 29 Nordeste 0 -- -- 73
2018-07-27 06:00:00 21.7 4 Norte 19 Norte 0 -- -- 73
2018-07-27 05:00:00 21.8 11 Nordeste 39 Nordeste 0 -- -- 71
2018-07-27 04:00:00 21.8 9 Norte 36 Norte 0 -- -- 70
2018-07-27 03:00:00 21.9 11 Norte 27 Norte 0 -- -- 72
2018-07-27 02:00:00 21.9 9 Norte 31 Norte 0 -- -- 71
2018-07-27 01:00:00 22.2 9 Norte 30 Noroeste 0 -- -- 70
2018-07-27 00:00:00 22.3 5 Norte 15 Norte 0 -- -- 71
2018-07-26 23:00:00 22.4 4 Nordeste 29 Nordeste 0 -- -- 69
2018-07-26 22:00:00 22.4 12 Norte 28 Nordeste 0 -- -- 70
2018-07-26 21:00:00 22.6 10 Norte 28 Norte 0 -- -- 69
2018-07-26 20:00:00 23 8 Norte 28 Noroeste 0 -- -- 65
2018-07-26 19:00:00 23.9 8 Norte 39 Norte 0 -- -- 62
2018-07-26 18:00:00 25.4 12 Norte 33 Norte 0 -- -- 58
2018-07-26 17:00:00 25.4 11 Norte 33 Nordeste 0 -- -- 59
2018-07-26 16:00:00 24.9 13 Norte 42 Norte 0 -- -- 61
2018-07-26 15:00:00 24.9 12 Nordeste 37 Norte 0 -- -- 64
2018-07-26 14:00:00 25.6 15 Nordeste 36 Nordeste 0 -- -- 61
2018-07-26 13:00:00 25.9 8 Nordeste 35 Nordeste 0 -- -- 61
2018-07-26 12:00:00 24.9 10 Norte 38 Este 0 -- -- 63
2018-07-26 11:00:00 24.3 10 Norte 32 Noroeste 0 -- -- 63
2018-07-26 10:00:00 23.6 15 Norte 32 Norte 0 -- -- 65
2018-07-26 09:00:00 22.4 14 Norte 32 Noroeste 0 -- -- 70
2018-07-26 08:00:00 21.6 8 Norte 25 Nordeste 0 -- -- 74
2018-07-26 07:00:00 21.5 9 Norte 29 Nordeste 0 -- -- 73
2018-07-26 06:00:00 21.6 9 Nordeste 27 Norte 0 -- -- 74
2018-07-26 05:00:00 21.4 8 Norte 27 Nordeste 0 -- -- 74
2018-07-26 04:00:00 21.4 9 Norte 31 Nordeste 0 -- -- 74
2018-07-26 03:00:00 21.4 8 Norte 23 Nordeste 0 -- -- 74
2018-07-26 02:00:00 21.6 8 Norte 24 Norte 0 -- -- 72
2018-07-26 01:00:00 21.7 8 Norte 27 Norte 0 -- -- 73
2018-07-26 00:00:00 21.9 8 Norte 31 Norte 0 -- -- 72
2018-07-25 23:00:00 22 8 Norte 21 Norte 0 -- -- 72
2018-07-25 22:00:00 22.1 6 Norte 26 Norte 0 -- -- 72
2018-07-25 21:00:00 22.4 8 Norte 29 Norte 0 -- -- 70
2018-07-25 20:00:00 23.1 9 Norte 30 Norte 0 -- -- 68
2018-07-25 19:00:00 24.5 11 Norte 30 Nordeste 0 -- -- 61
2018-07-25 18:00:00 25.2 11 Norte 35 Norte 0 -- -- 62
2018-07-25 17:00:00 25.1 15 Norte 36 Noroeste 0 -- -- 60
2018-07-25 16:00:00 26.1 15 Norte 36 Norte 0 -- -- 58
2018-07-25 15:00:00 25.8 16 Norte 36 Norte 0 -- -- 57
2018-07-25 14:00:00 25.4 17 Norte 38 Norte 0 -- -- 59
2018-07-25 13:00:00 25 16 Norte 36 Noroeste 0 -- -- 60
2018-07-25 12:00:00 24.6 16 Norte 30 Norte 0 -- -- 63
2018-07-25 11:00:00 24.3 13 Norte 32 Norte 0 -- -- 63
2018-07-25 10:00:00 23.3 12 Norte 35 Nordeste 0 -- -- 66
2018-07-25 09:00:00 22 13 Norte 32 Norte 0 -- -- 72
2018-07-25 08:00:00 21.3 12 Norte 35 Norte 0 -- -- 74
2018-07-25 07:00:00 21.2 11 Norte 30 Nordeste 0 -- -- 73
2018-07-25 06:00:00 21.3 12 Norte 28 Nordeste 0 -- -- 74
2018-07-25 05:00:00 21.3 10 Norte 28 Norte 0 -- -- 74
2018-07-25 04:00:00 21.3 8 Norte 21 Norte 0 -- -- 73
2018-07-25 03:00:00 21.6 8 Norte 28 Oeste 0 -- -- 74
2018-07-25 02:00:00 21.5 11 Norte 26 Nordeste 0 -- -- 72
2018-07-25 01:00:00 21.7 10 Norte 30 Norte 0 -- -- 72
2018-07-25 00:00:00 21.8 9 Norte 27 Norte 0 -- -- 73
2018-07-24 23:00:00 21.8 14 Norte 33 Norte 0 -- -- 72
2018-07-24 22:00:00 22 13 Norte 30 Norte 0 -- -- 70
2018-07-24 21:00:00 22.4 9 Norte 31 Noroeste 0 -- -- 72
2018-07-24 20:00:00 23 14 Norte 31 Norte 0 -- -- 70
2018-07-24 19:00:00 24.4 13 Norte 33 Nordeste 0 -- -- 64
2018-07-24 18:00:00 25 19 Norte 35 Norte 0 -- -- 62
2018-07-24 17:00:00 25.8 14 Norte 35 Nordeste 0 -- -- 57
2018-07-24 16:00:00 25.7 18 Norte 40 Norte 0 -- -- 57
2018-07-24 15:00:00 25.7 17 Norte 37 Norte 0 -- -- 57
2018-07-24 14:00:00 25.7 19 Norte 37 Norte 0 -- -- 56
2018-07-24 13:00:00 25.4 18 Norte 35 Nordeste 0 -- -- 57
2018-07-24 12:00:00 24.6 14 Norte 30 Norte 0 -- -- 62
2018-07-24 11:00:00 23.8 9 Norte 24 Norte 0 -- -- 69
2018-07-24 10:00:00 23.3 9 Norte 27 Nordeste 0 -- -- 65
2018-07-24 09:00:00 22.3 8 Norte 28 Norte 0 -- -- 68
2018-07-24 08:00:00 21.4 10 Norte 24 Norte 0 -- -- 75
2018-07-24 07:00:00 21.2 12 Norte 42 Norte 0 -- -- 74
2018-07-24 06:00:00 21.2 11 Norte 35 Norte 0 -- -- 74
2018-07-24 05:00:00 21.3 12 Norte 33 Norte 0 -- -- 75
2018-07-24 04:00:00 21.4 16 Norte 34 Norte 0 -- -- 74
2018-07-24 03:00:00 21.5 13 Norte 30 Norte 0 -- -- 74
2018-07-24 02:00:00 21.6 12 Norte 32 Norte 0 -- -- 70
2018-07-24 01:00:00 21.7 13 Norte 43 Norte 0 -- -- 73
2018-07-24 00:00:00 21.8 13 Norte 35 Nordeste 0 -- -- 72
2018-07-23 23:00:00 21.9 14 Norte 37 Norte 0 -- -- 72
2018-07-23 22:00:00 22.1 15 Norte 36 Norte 0 -- -- 70
2018-07-23 21:00:00 22.4 10 Norte 33 Norte 0 -- -- 69
2018-07-23 20:00:00 23.1 11 Norte 28 Norte 0 -- -- 65
2018-07-23 19:00:00 24.6 13 Norte 33 Norte 0 -- -- 60
2018-07-23 18:00:00 25.5 13 Norte 39 Nordeste 0 -- -- 58
2018-07-23 17:00:00 26.2 15 Nordeste 42 Nordeste 0 -- -- 56
2018-07-23 16:00:00 26 15 Norte 36 Norte 0 -- -- 57
2018-07-23 15:00:00 25.9 15 Norte 39 Norte 0 -- -- 60
2018-07-23 14:00:00 25.7 16 Norte 34 Norte 0 -- -- 57
2018-07-23 13:00:00 25.4 14 Norte 35 Nordeste 0 -- -- 58
2018-07-23 12:00:00 24.9 14 Norte 29 Norte 0 -- -- 61
2018-07-23 11:00:00 24.1 13 Norte 28 Nordeste 0 -- -- 61
2018-07-23 10:00:00 23.1 10 Norte 25 Nordeste 0 -- -- 67
2018-07-23 09:00:00 22.2 7 Norte 21 Norte 0 -- -- 67
2018-07-23 08:00:00 21.3 8 Norte 23 Norte 0 -- -- 74
2018-07-23 07:00:00 21.2 6 Norte 23 Nordeste 0 -- -- 74
2018-07-23 06:00:00 21.3 5 Norte 28 Norte 0 -- -- 74
2018-07-23 05:00:00 21.2 9 Norte 22 Norte 0 -- -- 74
2018-07-23 04:00:00 21.2 10 Norte 27 Norte 0 -- -- 73
2018-07-23 03:00:00 21.3 5 Norte 24 Norte 0 -- -- 72
2018-07-23 02:00:00 21.4 7 Norte 26 Norte 0 -- -- 73
2018-07-23 01:00:00 21.5 6 Norte 21 Nordeste 0 -- -- 71
2018-07-23 00:00:00 21.6 8 Norte 23 Norte 0 -- -- 70
2018-07-22 23:00:00 21.7 8 Norte 23 Nordeste 0 -- -- 72
2018-07-22 22:00:00 21.9 10 Norte 27 Norte 0 -- -- 70
2018-07-22 21:00:00 22.1 13 Norte 30 Norte 0 -- -- 67
2018-07-22 20:00:00 22.7 13 Norte 34 Norte 0 -- -- 64
2018-07-22 19:00:00 24.3 15 Norte 38 Norte 0 -- -- 61
2018-07-22 18:00:00 24.8 18 Norte 35 Nordeste 0 -- -- 60
2018-07-22 17:00:00 25.8 15 Norte 33 Nordeste 0 -- -- 56
2018-07-22 16:00:00 26 16 Norte 33 Noroeste 0 -- -- 52
2018-07-22 15:00:00 25.8 13 Norte 35 Nordeste 0 -- -- 55
2018-07-22 14:00:00 25.2 15 Norte 32 Norte 0 -- -- 59
2018-07-22 13:00:00 25.5 13 Norte 39 Norte 0 -- -- 56
2018-07-22 12:00:00 24.6 14 Norte 35 Norte 0 -- -- 58
2018-07-22 11:00:00 23.9 11 Norte 37 Norte 0 -- -- 60
2018-07-22 10:00:00 23.1 11 Norte 28 Norte 0 -- -- 61
2018-07-22 09:00:00 22 7 Norte 30 Norte 0 -- -- 65
2018-07-22 08:00:00 21 11 Norte 33 Norte 0 -- -- 67
2018-07-22 07:00:00 21 10 Norte 33 Norte 0 -- -- 68
2018-07-22 06:00:00 20.9 12 Norte 33 Norte 0 -- -- 71
2018-07-22 05:00:00 21 14 Norte 35 Noroeste 0 -- -- 68
2018-07-22 04:00:00 20.9 12 Norte 35 Norte 0 -- -- 72
2018-07-22 03:00:00 21 12 Norte 35 Noroeste 0 -- -- 69
2018-07-22 02:00:00 21.2 15 Norte 38 Norte 0 -- -- 71
2018-07-22 01:00:00 21.4 14 Norte 34 Noroeste 0 -- -- 72
2018-07-22 00:00:00 21.5 14 Norte 46 Norte 0 -- -- 72
2018-07-21 23:00:00 21.5 20 Norte 40 Nordeste 0 -- -- 70
2018-07-21 22:00:00 21.7 17 Norte 38 Norte 0 -- -- 71
2018-07-21 21:00:00 22.2 16 Norte 39 Norte 0 -- -- 71
2018-07-21 20:00:00 22.5 13 Norte 34 Noroeste 0 -- -- 68
2018-07-21 19:00:00 24 17 Norte 41 Norte 0 -- -- 63
2018-07-21 18:00:00 24.9 16 Norte 35 Noroeste 0 -- -- 61
2018-07-21 17:00:00 25.4 14 Norte 37 Nordeste 0 -- -- 61
2018-07-21 16:00:00 25.4 16 Norte 40 Norte 0 -- -- 59
2018-07-21 15:00:00 25.3 14 Norte 33 Nordeste 0 -- -- 62
2018-07-21 14:00:00 25.2 14 Norte 37 Nordeste 0 -- -- 60
2018-07-21 13:00:00 24.9 15 Norte 34 Nordeste 0 -- -- 63
2018-07-21 12:00:00 24.7 15 Norte 36 Nordeste 0 -- -- 65
2018-07-21 11:00:00 23.9 14 Norte 35 Norte 0 -- -- 66
2018-07-21 10:00:00 23.4 11 Norte 33 Noroeste 0 -- -- 69
2018-07-21 09:00:00 22.3 14 Norte 30 Norte 0 -- -- 72
2018-07-21 08:00:00 21.5 12 Norte 29 Norte 0 -- -- 75
2018-07-21 07:00:00 21.4 15 Norte 33 Noroeste 0 -- -- 76
2018-07-21 06:00:00 21.4 10 Norte 31 Noroeste 0 -- -- 76
2018-07-21 05:00:00 21.5 12 Norte 33 Norte 0 -- -- 76
2018-07-21 04:00:00 21.5 11 Norte 32 Norte 0 -- -- 74
2018-07-21 03:00:00 21.4 16 Norte 40 Este 0 -- -- 74
2018-07-21 02:00:00 21.5 16 Norte 33 Norte 0 -- -- 74
2018-07-21 01:00:00 21.6 15 Norte 44 Nordeste 0 -- -- 73
2018-07-21 00:00:00 21.9 16 Norte 38 Norte 0 -- -- 69
2018-07-20 23:00:00 21.9 15 Norte 37 Noroeste 0 -- -- 70
2018-07-20 22:00:00 22.1 18 Norte 45 Nordeste 0 -- -- 69
2018-07-20 21:00:00 22.4 19 Norte 38 Norte 0 -- -- 67
2018-07-20 20:00:00 22.7 18 Norte 44 Norte 0 -- -- 69
2018-07-20 19:00:00 24 17 Norte 43 Norte 0 -- -- 64
2018-07-20 18:00:00 24.5 20 Norte 41 Nordeste 0 -- -- 60
2018-07-20 17:00:00 25.1 17 Norte 41 Nordeste 0 -- -- 60
2018-07-20 16:00:00 25.5 19 Norte 41 Norte 0 -- -- 59
2018-07-20 15:00:00 25.6 16 Norte 38 Norte 0 -- -- 59
2018-07-20 14:00:00 25.3 20 Norte 41 Norte 0 -- -- 59
2018-07-20 13:00:00 25.3 18 Norte 34 Norte 0 -- -- 59
2018-07-20 12:00:00 25 15 Norte 33 Norte 0 -- -- 60
2018-07-20 11:00:00 24.2 14 Norte 33 Norte 0 -- -- 62
2018-07-20 10:00:00 23.2 14 Norte 33 Norte 0 -- -- 65
2018-07-20 09:00:00 22.1 14 Norte 30 Norte 0 -- -- 70
2018-07-20 08:00:00 21.3 14 Norte 34 Norte 0 -- -- 71
2018-07-20 07:00:00 21.3 15 Norte 37 Norte 0 -- -- 72
2018-07-20 06:00:00 21.2 18 Norte 35 Norte 0 -- -- 73
2018-07-20 05:00:00 21.1 14 Norte 32 Norte 0 -- -- 74
2018-07-20 04:00:00 21.1 15 Norte 32 Nordeste 0 -- -- 73
2018-07-20 03:00:00 21.2 15 Norte 34 Nordeste 0 -- -- 72
2018-07-20 02:00:00 21.4 15 Norte 35 Nordeste 0 -- -- 71
2018-07-20 01:00:00 21.6 17 Norte 39 Norte 0 -- -- 71
2018-07-20 00:00:00 21.8 15 Norte 37 Nordeste 0 -- -- 70